sensor_id;sensor_type;location;lat;lon;timestamp;pressure;altitude;pressure_sealevel;temperature;humidity
62103;BME280;48077;48.104;11.702;2023-07-24T00:00:19;94968.78;;;17.18;81.68
62103;BME280;48077;48.104;11.702;2023-07-24T00:07:40;94957.22;;;17.17;81.21
62103;BME280;48077;48.104;11.702;2023-07-24T00:10:04;94950.66;;;17.24;81.56
62103;BME280;48077;48.104;11.702;2023-07-24T00:12:28;94945.00;;;17.25;81.51
62103;BME280;48077;48.104;11.702;2023-07-24T00:14:52;94937.84;;;17.15;81.29
62103;BME280;48077;48.104;11.702;2023-07-24T00:17:16;94935.06;;;17.20;81.27
62103;BME280;48077;48.104;11.702;2023-07-24T00:19:39;94945.44;;;17.32;81.47
62103;BME280;48077;48.104;11.702;2023-07-24T00:22:02;94940.34;;;17.31;81.13
62103;BME280;48077;48.104;11.702;2023-07-24T00:24:29;94920.16;;;17.28;80.89
62103;BME280;48077;48.104;11.702;2023-07-24T00:26:52;94915.88;;;17.27;80.59
62103;BME280;48077;48.104;11.702;2023-07-24T00:29:15;94930.72;;;17.44;80.10
62103;BME280;48077;48.104;11.702;2023-07-24T00:31:39;94931.84;;;17.43;80.73
62103;BME280;48077;48.104;11.702;2023-07-24T00:34:02;94919.44;;;17.42;80.33
62103;BME280;48077;48.104;11.702;2023-07-24T00:36:26;94915.94;;;17.41;80.25
62103;BME280;48077;48.104;11.702;2023-07-24T00:38:49;94903.06;;;17.38;80.15
62103;BME280;48077;48.104;11.702;2023-07-24T00:41:13;94906.56;;;17.38;80.34
62103;BME280;48077;48.104;11.702;2023-07-24T00:43:36;94891.53;;;17.32;80.04
62103;BME280;48077;48.104;11.702;2023-07-24T00:45:59;94899.25;;;17.39;80.06
62103;BME280;48077;48.104;11.702;2023-07-24T00:48:23;94890.66;;;17.37;80.19
62103;BME280;48077;48.104;11.702;2023-07-24T00:50:48;94901.59;;;17.46;80.17
62103;BME280;48077;48.104;11.702;2023-07-24T00:53:12;94890.09;;;17.40;79.92
62103;BME280;48077;48.104;11.702;2023-07-24T00:55:36;94898.31;;;17.49;79.89
62103;BME280;48077;48.104;11.702;2023-07-24T00:58:00;94894.31;;;17.46;79.79
62103;BME280;48077;48.104;11.702;2023-07-24T01:00:25;94899.22;;;17.44;79.72
62103;BME280;48077;48.104;11.702;2023-07-24T01:02:49;94892.19;;;17.43;79.48
62103;BME280;48077;48.104;11.702;2023-07-24T01:05:13;94886.66;;;17.34;80.29
62103;BME280;48077;48.104;11.702;2023-07-24T01:07:38;94881.13;;;17.26;80.71
62103;BME280;48077;48.104;11.702;2023-07-24T01:10:01;94879.31;;;17.21;80.91
62103;BME280;48077;48.104;11.702;2023-07-24T01:15:00;94884.22;;;17.14;81.20
62103;BME280;48077;48.104;11.702;2023-07-24T01:17:27;94882.69;;;17.08;81.69
62103;BME280;48077;48.104;11.702;2023-07-24T01:19:55;94885.16;;;17.04;82.02
62103;BME280;48077;48.104;11.702;2023-07-24T01:25:18;94875.34;;;16.89;83.26
62103;BME280;48077;48.104;11.702;2023-07-24T01:27:43;94878.13;;;16.84;83.74
62103;BME280;48077;48.104;11.702;2023-07-24T01:30:07;94869.81;;;16.81;83.73
62103;BME280;48077;48.104;11.702;2023-07-24T01:32:31;94869.03;;;16.75;84.03
62103;BME280;48077;48.104;11.702;2023-07-24T01:34:54;94861.59;;;16.67;84.03
62103;BME280;48077;48.104;11.702;2023-07-24T01:37:20;94865.59;;;16.69;84.43
62103;BME280;48077;48.104;11.702;2023-07-24T01:39:45;94846.53;;;16.66;84.31
62103;BME280;48077;48.104;11.702;2023-07-24T01:42:09;94856.22;;;16.67;84.91
62103;BME280;48077;48.104;11.702;2023-07-24T01:44:32;94850.34;;;16.59;85.08
62103;BME280;48077;48.104;11.702;2023-07-24T01:46:55;94854.16;;;16.58;85.43
62103;BME280;48077;48.104;11.702;2023-07-24T01:49:19;94851.22;;;16.55;85.75
62103;BME280;48077;48.104;11.702;2023-07-24T01:51:42;94857.16;;;16.52;85.94
62103;BME280;48077;48.104;11.702;2023-07-24T01:54:05;94843.50;;;16.48;85.55
62103;BME280;48077;48.104;11.702;2023-07-24T01:56:29;94854.00;;;16.45;85.74
62103;BME280;48077;48.104;11.702;2023-07-24T01:58:52;94860.25;;;16.40;86.00
62103;BME280;48077;48.104;11.702;2023-07-24T02:01:16;94858.59;;;16.44;86.07
62103;BME280;48077;48.104;11.702;2023-07-24T02:03:39;94852.63;;;16.47;85.93
62103;BME280;48077;48.104;11.702;2023-07-24T02:06:02;94849.44;;;16.45;85.64
62103;BME280;48077;48.104;11.702;2023-07-24T02:08:26;94858.25;;;16.51;85.65
62103;BME280;48077;48.104;11.702;2023-07-24T02:10:49;94858.25;;;16.51;85.85
62103;BME280;48077;48.104;11.702;2023-07-24T02:13:14;94860.44;;;16.49;86.17
62103;BME280;48077;48.104;11.702;2023-07-24T02:15:37;94859.41;;;16.45;86.36
62103;BME280;48077;48.104;11.702;2023-07-24T02:18:01;94857.56;;;16.40;87.14
62103;BME280;48077;48.104;11.702;2023-07-24T02:20:24;94860.59;;;16.33;87.58
62103;BME280;48077;48.104;11.702;2023-07-24T02:22:47;94856.66;;;16.21;87.92
62103;BME280;48077;48.104;11.702;2023-07-24T02:25:11;94873.84;;;16.25;88.61
62103;BME280;48077;48.104;11.702;2023-07-24T02:27:34;94858.13;;;16.08;89.42
62103;BME280;48077;48.104;11.702;2023-07-24T02:29:57;94884.41;;;16.16;89.38
62103;BME280;48077;48.104;11.702;2023-07-24T02:32:21;94884.41;;;16.16;89.51
62103;BME280;48077;48.104;11.702;2023-07-24T02:34:49;94890.59;;;16.16;90.30
62103;BME280;48077;48.104;11.702;2023-07-24T02:37:13;94883.03;;;16.18;90.18
62103;BME280;48077;48.104;11.702;2023-07-24T02:39:36;94844.22;;;16.01;90.28
62103;BME280;48077;48.104;11.702;2023-07-24T02:41:59;94873.91;;;16.19;89.94
62103;BME280;48077;48.104;11.702;2023-07-24T02:44:23;94883.81;;;16.24;89.78
62103;BME280;48077;48.104;11.702;2023-07-24T02:46:46;94910.44;;;16.26;89.76
62103;BME280;48077;48.104;11.702;2023-07-24T02:49:09;94967.75;;;16.26;90.17
62103;BME280;48077;48.104;11.702;2023-07-24T02:51:33;94948.56;;;16.33;89.85
62103;BME280;48077;48.104;11.702;2023-07-24T02:53:57;94886.69;;;16.33;89.21
62103;BME280;48077;48.104;11.702;2023-07-24T02:56:21;94906.97;;;16.49;89.14
62103;BME280;48077;48.104;11.702;2023-07-24T02:58:44;94921.75;;;16.52;89.10
62103;BME280;48077;48.104;11.702;2023-07-24T03:01:08;94916.06;;;16.58;88.70
62103;BME280;48077;48.104;11.702;2023-07-24T03:03:31;94931.09;;;16.65;88.84
62103;BME280;48077;48.104;11.702;2023-07-24T03:05:55;94914.16;;;16.59;88.76
62103;BME280;48077;48.104;11.702;2023-07-24T03:08:18;94936.41;;;16.70;88.27
62103;BME280;48077;48.104;11.702;2023-07-24T03:10:41;94939.63;;;16.72;88.73
62103;BME280;48077;48.104;11.702;2023-07-24T03:13:05;95005.78;;;16.78;88.05
62103;BME280;48077;48.104;11.702;2023-07-24T03:15:28;95108.41;;;16.82;87.63
62103;BME280;48077;48.104;11.702;2023-07-24T03:17:51;95131.03;;;16.81;87.30
62103;BME280;48077;48.104;11.702;2023-07-24T03:20:16;95124.03;;;16.74;89.53
62103;BME280;48077;48.104;11.702;2023-07-24T03:22:41;95142.88;;;16.79;94.20
62103;BME280;48077;48.104;11.702;2023-07-24T03:25:08;95085.25;;;16.81;98.04
62103;BME280;48077;48.104;11.702;2023-07-24T03:27:33;95052.94;;;16.75;99.92
62103;BME280;48077;48.104;11.702;2023-07-24T03:29:59;95060.06;;;16.61;100.00
62103;BME280;48077;48.104;11.702;2023-07-24T03:32:22;95051.41;;;16.64;100.00
62103;BME280;48077;48.104;11.702;2023-07-24T03:34:45;95026.38;;;16.64;100.00
62103;BME280;48077;48.104;11.702;2023-07-24T03:37:09;95031.22;;;16.67;100.00
62103;BME280;48077;48.104;11.702;2023-07-24T03:39:32;95010.56;;;16.57;100.00
62103;BME280;48077;48.104;11.702;2023-07-24T03:41:55;94997.34;;;16.61;100.00
62103;BME280;48077;48.104;11.702;2023-07-24T03:44:19;94980.16;;;16.56;100.00
62103;BME280;48077;48.104;11.702;2023-07-24T03:46:42;94970.94;;;16.63;100.00
62103;BME280;48077;48.104;11.702;2023-07-24T03:49:05;94932.16;;;16.64;100.00
62103;BME280;48077;48.104;11.702;2023-07-24T03:51:29;94887.16;;;16.69;100.00
62103;BME280;48077;48.104;11.702;2023-07-24T03:53:52;94861.88;;;16.65;100.00
62103;BME280;48077;48.104;11.702;2023-07-24T03:56:16;94880.13;;;16.68;100.00
62103;BME280;48077;48.104;11.702;2023-07-24T03:58:39;94877.25;;;16.65;100.00
62103;BME280;48077;48.104;11.702;2023-07-24T04:01:03;94856.31;;;16.56;100.00
62103;BME280;48077;48.104;11.702;2023-07-24T04:03:26;94871.09;;;16.59;100.00
62103;BME280;48077;48.104;11.702;2023-07-24T04:05:49;94890.69;;;16.65;100.00
62103;BME280;48077;48.104;11.702;2023-07-24T04:08:13;94897.69;;;16.66;100.00
62103;BME280;48077;48.104;11.702;2023-07-24T04:10:36;94912.97;;;16.70;100.00
62103;BME280;48077;48.104;11.702;2023-07-24T04:13:00;94893.66;;;16.63;100.00
62103;BME280;48077;48.104;11.702;2023-07-24T04:15:23;94894.22;;;16.60;100.00
62103;BME280;48077;48.104;11.702;2023-07-24T04:17:46;94887.53;;;16.57;100.00
62103;BME280;48077;48.104;11.702;2023-07-24T04:20:10;94879.97;;;16.59;100.00
62103;BME280;48077;48.104;11.702;2023-07-24T04:22:33;94875.84;;;16.67;100.00
62103;BME280;48077;48.104;11.702;2023-07-24T04:24:56;94892.97;;;16.76;100.00
62103;BME280;48077;48.104;11.702;2023-07-24T04:27:20;94898.09;;;16.78;100.00
62103;BME280;48077;48.104;11.702;2023-07-24T04:29:43;94923.66;;;16.81;100.00
62103;BME280;48077;48.104;11.702;2023-07-24T04:32:07;94909.72;;;16.73;100.00
62103;BME280;48077;48.104;11.702;2023-07-24T04:34:30;94907.81;;;16.74;100.00
62103;BME280;48077;48.104;11.702;2023-07-24T04:36:56;94911.56;;;16.78;100.00
62103;BME280;48077;48.104;11.702;2023-07-24T04:39:19;94929.28;;;16.79;100.00
62103;BME280;48077;48.104;11.702;2023-07-24T04:41:42;94933.09;;;16.78;100.00
62103;BME280;48077;48.104;11.702;2023-07-24T04:44:06;94917.84;;;16.68;100.00
62103;BME280;48077;48.104;11.702;2023-07-24T04:46:29;94926.66;;;16.74;100.00
62103;BME280;48077;48.104;11.702;2023-07-24T04:48:52;94920.53;;;16.68;100.00
62103;BME280;48077;48.104;11.702;2023-07-24T04:51:16;94919.50;;;16.64;100.00
62103;BME280;48077;48.104;11.702;2023-07-24T04:53:42;94921.63;;;16.67;100.00
62103;BME280;48077;48.104;11.702;2023-07-24T04:56:05;94908.44;;;16.66;100.00
62103;BME280;48077;48.104;11.702;2023-07-24T04:58:29;94904.69;;;16.67;100.00
62103;BME280;48077;48.104;11.702;2023-07-24T05:00:52;94908.19;;;16.62;100.00
62103;BME280;48077;48.104;11.702;2023-07-24T05:03:15;94910.34;;;16.65;100.00
62103;BME280;48077;48.104;11.702;2023-07-24T05:05:40;94919.97;;;16.71;100.00
62103;BME280;48077;48.104;11.702;2023-07-24T05:08:04;94922.66;;;16.71;100.00
62103;BME280;48077;48.104;11.702;2023-07-24T05:10:34;94930.16;;;16.74;100.00
62103;BME280;48077;48.104;11.702;2023-07-24T05:12:58;94929.59;;;16.77;100.00
62103;BME280;48077;48.104;11.702;2023-07-24T05:15:22;94928.25;;;16.75;100.00
62103;BME280;48077;48.104;11.702;2023-07-24T05:17:45;94929.06;;;16.81;100.00
62103;BME280;48077;48.104;11.702;2023-07-24T05:20:09;94926.84;;;16.88;100.00
62103;BME280;48077;48.104;11.702;2023-07-24T05:22:32;94929.00;;;16.86;100.00
62103;BME280;48077;48.104;11.702;2023-07-24T05:24:56;94920.88;;;16.91;100.00
62103;BME280;48077;48.104;11.702;2023-07-24T05:27:19;94909.81;;;16.92;100.00
62103;BME280;48077;48.104;11.702;2023-07-24T05:29:42;94899.31;;;16.91;100.00
62103;BME280;48077;48.104;11.702;2023-07-24T05:32:06;94903.63;;;16.92;100.00
62103;BME280;48077;48.104;11.702;2023-07-24T05:34:30;94903.03;;;16.95;100.00
62103;BME280;48077;48.104;11.702;2023-07-24T05:36:53;94898.16;;;16.97;100.00
62103;BME280;48077;48.104;11.702;2023-07-24T05:39:16;94880.41;;;16.96;100.00
62103;BME280;48077;48.104;11.702;2023-07-24T05:41:40;94883.19;;;17.10;100.00
62103;BME280;48077;48.104;11.702;2023-07-24T05:44:03;94876.09;;;17.19;100.00
62103;BME280;48077;48.104;11.702;2023-07-24T05:46:27;94881.34;;;17.29;100.00
62103;BME280;48077;48.104;11.702;2023-07-24T05:48:50;94892.16;;;17.48;100.00
62103;BME280;48077;48.104;11.702;2023-07-24T05:51:13;94886.00;;;17.62;100.00
62103;BME280;48077;48.104;11.702;2023-07-24T05:53:37;94872.97;;;17.69;100.00
62103;BME280;48077;48.104;11.702;2023-07-24T05:56:02;94874.06;;;17.87;100.00
62103;BME280;48077;48.104;11.702;2023-07-24T05:58:26;94874.72;;;17.97;100.00
62103;BME280;48077;48.104;11.702;2023-07-24T06:00:50;94875.34;;;18.08;100.00
62103;BME280;48077;48.104;11.702;2023-07-24T06:03:13;94870.66;;;18.14;100.00
62103;BME280;48077;48.104;11.702;2023-07-24T06:05:36;94856.50;;;18.22;100.00
62103;BME280;48077;48.104;11.702;2023-07-24T06:08:00;94859.63;;;18.43;99.55
62103;BME280;48077;48.104;11.702;2023-07-24T06:10:23;94863.44;;;18.56;98.30
62103;BME280;48077;48.104;11.702;2023-07-24T06:12:46;94830.28;;;18.69;98.67
62103;BME280;48077;48.104;11.702;2023-07-24T06:15:10;94819.84;;;18.76;98.38
62103;BME280;48077;48.104;11.702;2023-07-24T06:17:34;94818.47;;;18.93;97.25
62103;BME280;48077;48.104;11.702;2023-07-24T06:19:57;94805.75;;;18.93;96.13
62103;BME280;48077;48.104;11.702;2023-07-24T06:22:21;94799.97;;;19.00;96.06
62103;BME280;48077;48.104;11.702;2023-07-24T06:24:44;94804.34;;;19.10;95.60
62103;BME280;48077;48.104;11.702;2023-07-24T06:27:07;94812.34;;;19.15;94.09
62103;BME280;48077;48.104;11.702;2023-07-24T06:29:31;94800.13;;;19.17;92.93
62103;BME280;48077;48.104;11.702;2023-07-24T06:31:54;94808.59;;;19.25;92.85
62103;BME280;48077;48.104;11.702;2023-07-24T06:34:17;94800.50;;;19.25;92.52
62103;BME280;48077;48.104;11.702;2023-07-24T06:36:41;94794.56;;;19.36;91.79
62103;BME280;48077;48.104;11.702;2023-07-24T06:39:04;94796.63;;;19.53;90.56
62103;BME280;48077;48.104;11.702;2023-07-24T06:41:27;94783.53;;;19.69;89.66
62103;BME280;48077;48.104;11.702;2023-07-24T06:43:51;94782.09;;;19.86;89.43
62103;BME280;48077;48.104;11.702;2023-07-24T06:46:14;94775.97;;;20.02;88.22
62103;BME280;48077;48.104;11.702;2023-07-24T06:48:38;94780.50;;;20.16;85.94
62103;BME280;48077;48.104;11.702;2023-07-24T06:51:01;94796.22;;;20.36;84.54
62103;BME280;48077;48.104;11.702;2023-07-24T06:53:24;94801.69;;;20.54;81.79
62103;BME280;48077;48.104;11.702;2023-07-24T06:55:48;94807.69;;;20.65;80.12
62103;BME280;48077;48.104;11.702;2023-07-24T06:58:11;94795.13;;;20.77;78.97
62103;BME280;48077;48.104;11.702;2023-07-24T07:00:35;94794.38;;;20.94;78.31
62103;BME280;48077;48.104;11.702;2023-07-24T07:02:58;94800.47;;;21.09;77.60
62103;BME280;48077;48.104;11.702;2023-07-24T07:05:21;94787.88;;;21.13;76.74
62103;BME280;48077;48.104;11.702;2023-07-24T07:07:47;94798.09;;;21.16;73.96
62103;BME280;48077;48.104;11.702;2023-07-24T07:10:10;94808.81;;;21.30;73.44
62103;BME280;48077;48.104;11.702;2023-07-24T07:12:33;94784.72;;;21.28;72.45
62103;BME280;48077;48.104;11.702;2023-07-24T07:14:57;94815.56;;;21.58;69.85
62103;BME280;48077;48.104;11.702;2023-07-24T07:17:20;94815.53;;;21.85;69.09
62103;BME280;48077;48.104;11.702;2023-07-24T07:19:43;94816.47;;;22.06;67.99
62103;BME280;48077;48.104;11.702;2023-07-24T07:22:07;94806.22;;;22.20;65.99
62103;BME280;48077;48.104;11.702;2023-07-24T07:24:31;94830.19;;;22.36;65.22
62103;BME280;48077;48.104;11.702;2023-07-24T07:26:54;94840.44;;;22.30;64.81
62103;BME280;48077;48.104;11.702;2023-07-24T07:29:18;94869.81;;;22.28;63.69
62103;BME280;48077;48.104;11.702;2023-07-24T07:31:41;94880.53;;;22.25;64.30
62103;BME280;48077;48.104;11.702;2023-07-24T07:34:04;94892.22;;;22.25;65.95
62103;BME280;48077;48.104;11.702;2023-07-24T07:36:28;94890.09;;;22.22;66.53
62103;BME280;48077;48.104;11.702;2023-07-24T07:38:51;94904.63;;;22.17;67.11
62103;BME280;48077;48.104;11.702;2023-07-24T07:41:14;94929.41;;;22.07;67.38
62103;BME280;48077;48.104;11.702;2023-07-24T07:43:38;94963.44;;;21.96;66.45
62103;BME280;48077;48.104;11.702;2023-07-24T07:46:02;94981.59;;;21.95;65.07
62103;BME280;48077;48.104;11.702;2023-07-24T07:48:26;94981.59;;;21.95;64.40
62103;BME280;48077;48.104;11.702;2023-07-24T07:50:52;94982.75;;;22.03;65.10
62103;BME280;48077;48.104;11.702;2023-07-24T07:53:16;94974.78;;;22.07;65.43
62103;BME280;48077;48.104;11.702;2023-07-24T07:55:39;94988.19;;;22.12;65.86
62103;BME280;48077;48.104;11.702;2023-07-24T07:58:02;95012.97;;;22.19;65.72
62103;BME280;48077;48.104;11.702;2023-07-24T08:00:26;94982.91;;;21.98;64.71
62103;BME280;48077;48.104;11.702;2023-07-24T08:02:49;94967.22;;;21.77;65.58
62103;BME280;48077;48.104;11.702;2023-07-24T08:05:12;94989.09;;;21.81;65.46
62103;BME280;48077;48.104;11.702;2023-07-24T08:07:36;95007.94;;;21.77;66.16
62103;BME280;48077;48.104;11.702;2023-07-24T08:09:59;94997.50;;;21.62;67.20
62103;BME280;48077;48.104;11.702;2023-07-24T08:12:23;94991.06;;;21.49;67.54
62103;BME280;48077;48.104;11.702;2023-07-24T08:14:46;94977.19;;;21.42;69.19
62103;BME280;48077;48.104;11.702;2023-07-24T08:17:09;94995.22;;;21.47;69.86
62103;BME280;48077;48.104;11.702;2023-07-24T08:19:33;94990.91;;;21.46;69.97
62103;BME280;48077;48.104;11.702;2023-07-24T08:21:56;94983.84;;;21.36;70.66
62103;BME280;48077;48.104;11.702;2023-07-24T08:24:20;94964.03;;;21.35;71.46
62103;BME280;48077;48.104;11.702;2023-07-24T08:26:43;94966.25;;;21.33;70.61
62103;BME280;48077;48.104;11.702;2023-07-24T08:29:06;94966.88;;;21.21;71.08
62103;BME280;48077;48.104;11.702;2023-07-24T08:31:30;94966.34;;;21.11;72.65
62103;BME280;48077;48.104;11.702;2023-07-24T08:33:53;94959.28;;;21.01;73.78
62103;BME280;48077;48.104;11.702;2023-07-24T08:36:17;94952.19;;;20.91;73.83
62103;BME280;48077;48.104;11.702;2023-07-24T08:38:41;94963.50;;;20.85;74.12
62103;BME280;48077;48.104;11.702;2023-07-24T08:41:08;94945.97;;;20.59;74.51
62103;BME280;48077;48.104;11.702;2023-07-24T08:43:33;94971.38;;;20.72;74.93
62103;BME280;48077;48.104;11.702;2023-07-24T08:45:58;94955.88;;;20.64;74.95
62103;BME280;48077;48.104;11.702;2023-07-24T08:48:22;94942.03;;;20.66;75.01
62103;BME280;48077;48.104;11.702;2023-07-24T08:50:47;94895.66;;;20.45;74.89
62103;BME280;48077;48.104;11.702;2023-07-24T08:53:12;94886.56;;;20.63;74.53
62103;BME280;48077;48.104;11.702;2023-07-24T08:55:36;94902.19;;;20.66;74.34
62103;BME280;48077;48.104;11.702;2023-07-24T08:58:02;94897.28;;;20.77;74.01
62103;BME280;48077;48.104;11.702;2023-07-24T09:00:28;94877.84;;;20.75;73.85
62103;BME280;48077;48.104;11.702;2023-07-24T09:02:52;94866.69;;;20.76;74.33
62103;BME280;48077;48.104;11.702;2023-07-24T09:05:15;94876.00;;;20.93;74.55
62103;BME280;48077;48.104;11.702;2023-07-24T09:07:40;94884.00;;;20.98;74.42
62103;BME280;48077;48.104;11.702;2023-07-24T09:10:03;94876.16;;;20.88;74.54
62103;BME280;48077;48.104;11.702;2023-07-24T09:12:27;94889.25;;;20.94;74.11
62103;BME280;48077;48.104;11.702;2023-07-24T09:15:01;94862.72;;;20.82;74.09
62103;BME280;48077;48.104;11.702;2023-07-24T09:17:26;94881.09;;;20.86;74.65
62103;BME280;48077;48.104;11.702;2023-07-24T09:19:55;94881.09;;;20.86;75.13
62103;BME280;48077;48.104;11.702;2023-07-24T09:22:19;94885.69;;;20.85;75.20
62103;BME280;48077;48.104;11.702;2023-07-24T09:24:54;94854.88;;;20.72;74.87
62103;BME280;48077;48.104;11.702;2023-07-24T09:27:18;94883.97;;;20.89;74.27
62103;BME280;48077;48.104;11.702;2023-07-24T09:29:41;94877.47;;;20.99;74.80
62103;BME280;48077;48.104;11.702;2023-07-24T09:32:05;94857.72;;;21.07;74.37
62103;BME280;48077;48.104;11.702;2023-07-24T09:34:28;94853.00;;;21.30;73.99
62103;BME280;48077;48.104;11.702;2023-07-24T09:36:52;94851.94;;;21.49;71.97
62103;BME280;48077;48.104;11.702;2023-07-24T09:39:22;94841.91;;;21.84;69.98
62103;BME280;48077;48.104;11.702;2023-07-24T09:41:46;94830.84;;;22.15;69.52
62103;BME280;48077;48.104;11.702;2023-07-24T09:44:12;94835.25;;;22.55;67.40
62103;BME280;48077;48.104;11.702;2023-07-24T09:46:36;94814.84;;;22.78;63.90
62103;BME280;48077;48.104;11.702;2023-07-24T09:48:59;94805.63;;;23.09;62.83
62103;BME280;48077;48.104;11.702;2023-07-24T09:51:23;94810.63;;;23.28;62.96
62103;BME280;48077;48.104;11.702;2023-07-24T09:54:00;94799.88;;;23.53;61.94
62103;BME280;48077;48.104;11.702;2023-07-24T09:56:25;94798.81;;;23.87;59.25
62103;BME280;48077;48.104;11.702;2023-07-24T09:58:49;94792.44;;;24.16;58.88
62103;BME280;48077;48.104;11.702;2023-07-24T10:01:17;94785.38;;;24.49;57.30
62103;BME280;48077;48.104;11.702;2023-07-24T10:03:47;94774.63;;;24.64;56.67
62103;BME280;48077;48.104;11.702;2023-07-24T10:06:11;94765.78;;;24.68;55.40
62103;BME280;48077;48.104;11.702;2023-07-24T10:08:35;94766.81;;;24.75;54.08
62103;BME280;48077;48.104;11.702;2023-07-24T10:10:58;94778.63;;;24.92;52.58
62103;BME280;48077;48.104;11.702;2023-07-24T10:13:22;94768.97;;;25.07;51.90
62103;BME280;48077;48.104;11.702;2023-07-24T10:15:47;94751.66;;;25.15;51.66
62103;BME280;48077;48.104;11.702;2023-07-24T10:18:11;94756.28;;;25.39;50.70
62103;BME280;48077;48.104;11.702;2023-07-24T10:20:36;94766.16;;;25.43;50.19
62103;BME280;48077;48.104;11.702;2023-07-24T10:23:03;94761.38;;;25.53;49.54
62103;BME280;48077;48.104;11.702;2023-07-24T10:25:30;94772.47;;;25.72;49.54
62103;BME280;48077;48.104;11.702;2023-07-24T10:27:54;94764.81;;;25.78;47.88
62103;BME280;48077;48.104;11.702;2023-07-24T10:30:28;94764.16;;;25.69;47.93
62103;BME280;48077;48.104;11.702;2023-07-24T10:32:52;94756.91;;;25.60;47.71
62103;BME280;48077;48.104;11.702;2023-07-24T10:35:15;94769.28;;;25.70;47.99
62103;BME280;48077;48.104;11.702;2023-07-24T10:37:41;94770.91;;;25.87;47.44
62103;BME280;48077;48.104;11.702;2023-07-24T10:40:05;94768.00;;;26.08;46.81
62103;BME280;48077;48.104;11.702;2023-07-24T10:42:28;94768.81;;;26.09;47.01
62103;BME280;48077;48.104;11.702;2023-07-24T10:45:07;94768.00;;;26.08;46.44
62103;BME280;48077;48.104;11.702;2023-07-24T10:47:30;94772.25;;;26.05;48.38
62103;BME280;48077;48.104;11.702;2023-07-24T10:49:53;94765.72;;;25.82;50.35
62103;BME280;48077;48.104;11.702;2023-07-24T10:52:17;94761.78;;;25.67;50.75
62103;BME280;48077;48.104;11.702;2023-07-24T10:54:40;94753.75;;;25.58;48.80
62103;BME280;48077;48.104;11.702;2023-07-24T10:57:04;94749.13;;;25.47;49.07
62103;BME280;48077;48.104;11.702;2023-07-24T10:59:39;94751.63;;;25.39;49.72
62103;BME280;48077;48.104;11.702;2023-07-24T11:02:03;94725.38;;;25.35;49.75
62103;BME280;48077;48.104;11.702;2023-07-24T11:04:27;94726.47;;;25.58;50.06
62103;BME280;48077;48.104;11.702;2023-07-24T11:06:53;94721.72;;;25.99;49.50
62103;BME280;48077;48.104;11.702;2023-07-24T11:09:17;94717.78;;;26.29;50.02
62103;BME280;48077;48.104;11.702;2023-07-24T11:11:42;94716.41;;;26.67;47.69
62103;BME280;48077;48.104;11.702;2023-07-24T11:14:13;94704.91;;;26.93;46.41
62103;BME280;48077;48.104;11.702;2023-07-24T11:16:36;94709.28;;;27.13;45.96
62103;BME280;48077;48.104;11.702;2023-07-24T11:19:00;94700.00;;;27.37;46.54
62103;BME280;48077;48.104;11.702;2023-07-24T11:21:23;94706.78;;;27.43;48.20
62103;BME280;48077;48.104;11.702;2023-07-24T11:23:49;94698.66;;;27.47;46.37
62103;BME280;48077;48.104;11.702;2023-07-24T11:26:13;94686.69;;;27.55;45.62
62103;BME280;48077;48.104;11.702;2023-07-24T11:28:40;94687.25;;;27.64;45.12
62103;BME280;48077;48.104;11.702;2023-07-24T11:31:03;94659.47;;;27.43;46.61
62103;BME280;48077;48.104;11.702;2023-07-24T11:33:27;94661.31;;;27.19;45.90
62103;BME280;48077;48.104;11.702;2023-07-24T11:35:50;94668.75;;;27.19;45.62
62103;BME280;48077;48.104;11.702;2023-07-24T11:38:14;94657.59;;;27.28;45.88
62103;BME280;48077;48.104;11.702;2023-07-24T11:40:39;94661.56;;;27.30;45.26
62103;BME280;48077;48.104;11.702;2023-07-24T11:43:03;94641.91;;;27.44;46.11
62103;BME280;48077;48.104;11.702;2023-07-24T11:45:27;94644.09;;;27.58;47.09
62103;BME280;48077;48.104;11.702;2023-07-24T11:47:50;94638.66;;;27.38;45.04
62103;BME280;48077;48.104;11.702;2023-07-24T11:50:17;94658.81;;;27.50;46.15
62103;BME280;48077;48.104;11.702;2023-07-24T11:52:45;94649.88;;;27.53;44.95
62103;BME280;48077;48.104;11.702;2023-07-24T11:55:10;94650.38;;;27.58;45.37
62103;BME280;48077;48.104;11.702;2023-07-24T11:57:33;94635.97;;;27.61;45.87
62103;BME280;48077;48.104;11.702;2023-07-24T11:59:57;94621.38;;;27.34;46.33
62103;BME280;48077;48.104;11.702;2023-07-24T12:02:21;94635.72;;;27.28;45.92
62103;BME280;48077;48.104;11.702;2023-07-24T12:04:44;94640.06;;;27.13;46.50
62103;BME280;48077;48.104;11.702;2023-07-24T12:07:08;94650.00;;;27.21;46.59
62103;BME280;48077;48.104;11.702;2023-07-24T12:09:32;94663.03;;;26.73;47.52
62103;BME280;48077;48.104;11.702;2023-07-24T12:11:58;94668.53;;;26.57;47.60
62103;BME280;48077;48.104;11.702;2023-07-24T12:14:21;94660.06;;;26.46;48.13
62103;BME280;48077;48.104;11.702;2023-07-24T12:16:48;94645.13;;;26.75;46.77
62103;BME280;48077;48.104;11.702;2023-07-24T12:19:11;94655.63;;;27.09;46.60
62103;BME280;48077;48.104;11.702;2023-07-24T12:21:34;94644.94;;;27.03;47.01
62103;BME280;48077;48.104;11.702;2023-07-24T12:23:58;94656.50;;;26.77;47.83
62103;BME280;48077;48.104;11.702;2023-07-24T12:26:21;94702.97;;;26.45;49.83
62103;BME280;48077;48.104;11.702;2023-07-24T12:28:45;94745.63;;;26.02;46.63
62103;BME280;48077;48.104;11.702;2023-07-24T12:31:09;94757.72;;;25.61;47.74
62103;BME280;48077;48.104;11.702;2023-07-24T12:33:33;94764.16;;;25.16;48.13
62103;BME280;48077;48.104;11.702;2023-07-24T12:35:56;94774.88;;;25.09;50.00
62103;BME280;48077;48.104;11.702;2023-07-24T12:38:20;94780.91;;;24.77;55.76
62103;BME280;48077;48.104;11.702;2023-07-24T12:40:43;94773.53;;;24.32;60.31